sensor_id;sensor_type;location;lat;lon;timestamp;temperature;humidity
44627;DHT22;30333;52.192;8.834;2023-04-15T00:40:20;7.00;99.90
44627;DHT22;30333;52.192;8.834;2023-04-15T00:47:40;7.00;99.90
44627;DHT22;30333;52.192;8.834;2023-04-15T01:24:14;7.40;99.90
44627;DHT22;30333;52.192;8.834;2023-04-15T01:41:27;7.30;99.90
44627;DHT22;30333;52.192;8.834;2023-04-15T01:56:03;7.00;99.90
44627;DHT22;30333;52.192;8.834;2023-04-15T02:35:04;7.20;99.90
44627;DHT22;30333;52.192;8.834;2023-04-15T03:26:28;7.00;99.90
44627;DHT22;30333;52.192;8.834;2023-04-15T04:02:58;7.40;99.90
44627;DHT22;30333;52.192;8.834;2023-04-15T05:01:27;7.60;99.90
44627;DHT22;30333;52.192;8.834;2023-04-15T05:11:11;7.70;99.90
44627;DHT22;30333;52.192;8.834;2023-04-15T05:16:06;7.70;99.90
44627;DHT22;30333;52.192;8.834;2023-04-15T05:18:31;8.50;99.90
44627;DHT22;30333;52.192;8.834;2023-04-15T05:40:25;7.70;99.90
44627;DHT22;30333;52.192;8.834;2023-04-15T05:42:51;7.70;99.90
44627;DHT22;30333;52.192;8.834;2023-04-15T06:29:58;7.60;99.90
44627;DHT22;30333;52.192;8.834;2023-04-15T06:32:23;7.40;99.90
44627;DHT22;30333;52.192;8.834;2023-04-15T06:39:41;7.40;99.90
44627;DHT22;30333;52.192;8.834;2023-04-15T07:18:40;7.30;99.90
44627;DHT22;30333;52.192;8.834;2023-04-15T07:25:58;7.50;99.90
44627;DHT22;30333;52.192;8.834;2023-04-15T07:30:50;7.20;99.90
44627;DHT22;30333;52.192;8.834;2023-04-15T08:00:04;7.30;99.90
44627;DHT22;30333;52.192;8.834;2023-04-15T08:29:18;7.30;99.90
44627;DHT22;30333;52.192;8.834;2023-04-15T08:34:13;7.20;99.90
44627;DHT22;30333;52.192;8.834;2023-04-15T08:41:42;7.50;99.90
44627;DHT22;30333;52.192;8.834;2023-04-15T08:49:11;7.50;99.90
44627;DHT22;30333;52.192;8.834;2023-04-15T08:54:09;7.60;99.90
44627;DHT22;30333;52.192;8.834;2023-04-15T08:56:37;7.60;99.90
44627;DHT22;30333;52.192;8.834;2023-04-15T09:01:31;7.70;99.90
44627;DHT22;30333;52.192;8.834;2023-04-15T09:06:23;7.80;99.90
44627;DHT22;30333;52.192;8.834;2023-04-15T09:08:50;8.00;99.90
44627;DHT22;30333;52.192;8.834;2023-04-15T09:13:44;8.00;99.90
44627;DHT22;30333;52.192;8.834;2023-04-15T09:21:10;8.10;99.90
44627;DHT22;30333;52.192;8.834;2023-04-15T09:23:37;8.00;99.90
44627;DHT22;30333;52.192;8.834;2023-04-15T09:30:59;8.20;99.90
44627;DHT22;30333;52.192;8.834;2023-04-15T09:33:26;8.20;99.90
44627;DHT22;30333;52.192;8.834;2023-04-15T09:36:01;8.20;99.90
44627;DHT22;30333;52.192;8.834;2023-04-15T09:45:51;8.10;99.90
44627;DHT22;30333;52.192;8.834;2023-04-15T09:48:24;8.10;99.90
44627;DHT22;30333;52.192;8.834;2023-04-15T09:50:57;7.90;99.90
44627;DHT22;30333;52.192;8.834;2023-04-15T09:53:23;7.90;99.90
44627;DHT22;30333;52.192;8.834;2023-04-15T09:55:51;7.70;99.90
44627;DHT22;30333;52.192;8.834;2023-04-15T09:58:21;8.20;99.90
44627;DHT22;30333;52.192;8.834;2023-04-15T10:00:49;8.40;99.90
44627;DHT22;30333;52.192;8.834;2023-04-15T10:03:22;8.30;99.90
44627;DHT22;30333;52.192;8.834;2023-04-15T10:05:49;8.40;99.90
44627;DHT22;30333;52.192;8.834;2023-04-15T10:08:17;8.40;99.90
44627;DHT22;30333;52.192;8.834;2023-04-15T10:10:45;8.50;99.90
44627;DHT22;30333;52.192;8.834;2023-04-15T10:13:13;8.50;99.90
44627;DHT22;30333;52.192;8.834;2023-04-15T10:15:47;8.50;99.90
44627;DHT22;30333;52.192;8.834;2023-04-15T10:18:15;8.50;99.90
44627;DHT22;30333;52.192;8.834;2023-04-15T10:40:30;8.70;99.90
44627;DHT22;30333;52.192;8.834;2023-04-15T10:43:00;8.80;99.90
44627;DHT22;30333;52.192;8.834;2023-04-15T10:45:35;8.70;99.90
44627;DHT22;30333;52.192;8.834;2023-04-15T10:48:06;8.60;99.90
44627;DHT22;30333;52.192;8.834;2023-04-15T10:53:02;8.60;99.90
44627;DHT22;30333;52.192;8.834;2023-04-15T10:55:33;8.60;99.90
44627;DHT22;30333;52.192;8.834;2023-04-15T10:58:00;8.60;99.90
44627;DHT22;30333;52.192;8.834;2023-04-15T12:17:57;9.10;99.90
44627;DHT22;30333;52.192;8.834;2023-04-15T12:20:24;9.00;99.90
44627;DHT22;30333;52.192;8.834;2023-04-15T12:22:50;9.00;99.90
44627;DHT22;30333;52.192;8.834;2023-04-15T12:25:16;9.20;99.90
44627;DHT22;30333;52.192;8.834;2023-04-15T12:27:50;9.10;99.90
44627;DHT22;30333;52.192;8.834;2023-04-15T12:32:42;9.10;99.90
44627;DHT22;30333;52.192;8.834;2023-04-15T12:35:10;9.10;99.90
44627;DHT22;30333;52.192;8.834;2023-04-15T12:42:27;9.00;99.90
44627;DHT22;30333;52.192;8.834;2023-04-15T12:47:19;9.10;99.90
44627;DHT22;30333;52.192;8.834;2023-04-15T12:54:38;9.30;99.90
44627;DHT22;30333;52.192;8.834;2023-04-15T12:57:04;9.30;99.90
44627;DHT22;30333;52.192;8.834;2023-04-15T12:59:30;9.30;99.90
44627;DHT22;30333;52.192;8.834;2023-04-15T13:04:22;9.20;99.90
44627;DHT22;30333;52.192;8.834;2023-04-15T13:06:47;9.20;99.90
44627;DHT22;30333;52.192;8.834;2023-04-15T13:14:07;9.30;99.90
44627;DHT22;30333;52.192;8.834;2023-04-15T13:16:33;10.10;99.90
44627;DHT22;30333;52.192;8.834;2023-04-15T13:18:59;9.70;99.90
44627;DHT22;30333;52.192;8.834;2023-04-15T13:21:26;10.30;99.90
44627;DHT22;30333;52.192;8.834;2023-04-15T13:31:10;9.30;99.90
44627;DHT22;30333;52.192;8.834;2023-04-15T13:33:35;9.40;99.90
44627;DHT22;30333;52.192;8.834;2023-04-15T13:36:01;9.30;99.90
44627;DHT22;30333;52.192;8.834;2023-04-15T13:38:27;9.50;99.90
44627;DHT22;30333;52.192;8.834;2023-04-15T13:40:52;9.50;99.90
44627;DHT22;30333;52.192;8.834;2023-04-15T13:43:17;9.40;99.90
44627;DHT22;30333;52.192;8.834;2023-04-15T13:45:45;9.50;99.90
44627;DHT22;30333;52.192;8.834;2023-04-15T13:48:11;9.50;99.90
44627;DHT22;30333;52.192;8.834;2023-04-15T14:00:25;9.50;99.90
44627;DHT22;30333;52.192;8.834;2023-04-15T14:02:50;9.50;99.90
44627;DHT22;30333;52.192;8.834;2023-04-15T14:05:16;9.60;99.90
44627;DHT22;30333;52.192;8.834;2023-04-15T14:07:41;9.70;99.90
44627;DHT22;30333;52.192;8.834;2023-04-15T14:10:07;11.00;99.90
44627;DHT22;30333;52.192;8.834;2023-04-15T14:12:33;9.50;99.90
44627;DHT22;30333;52.192;8.834;2023-04-15T14:14:58;9.50;99.90
44627;DHT22;30333;52.192;8.834;2023-04-15T14:17:24;9.60;99.90
44627;DHT22;30333;52.192;8.834;2023-04-15T14:19:49;9.50;99.90
44627;DHT22;30333;52.192;8.834;2023-04-15T14:22:15;9.60;99.90
44627;DHT22;30333;52.192;8.834;2023-04-15T14:24:42;9.60;99.90
44627;DHT22;30333;52.192;8.834;2023-04-15T14:27:08;10.80;99.90
44627;DHT22;30333;52.192;8.834;2023-04-15T14:29:35;9.60;99.90
44627;DHT22;30333;52.192;8.834;2023-04-15T14:34:26;9.60;99.90
44627;DHT22;30333;52.192;8.834;2023-04-15T14:36:52;9.70;99.90
44627;DHT22;30333;52.192;8.834;2023-04-15T14:39:18;9.60;99.90
44627;DHT22;30333;52.192;8.834;2023-04-15T14:41:44;9.70;99.90
44627;DHT22;30333;52.192;8.834;2023-04-15T14:44:09;9.70;99.90
44627;DHT22;30333;52.192;8.834;2023-04-15T14:46:36;9.70;99.90
44627;DHT22;30333;52.192;8.834;2023-04-15T14:49:02;9.70;99.90
44627;DHT22;30333;52.192;8.834;2023-04-15T14:56:20;9.60;99.90
44627;DHT22;30333;52.192;8.834;2023-04-15T15:03:38;9.60;99.90
44627;DHT22;30333;52.192;8.834;2023-04-15T15:08:29;9.80;99.90
44627;DHT22;30333;52.192;8.834;2023-04-15T15:10:55;9.70;99.90
44627;DHT22;30333;52.192;8.834;2023-04-15T15:13:20;9.70;99.90
44627;DHT22;30333;52.192;8.834;2023-04-15T15:18:14;9.60;99.90
44627;DHT22;30333;52.192;8.834;2023-04-15T15:25:32;9.70;99.90
44627;DHT22;30333;52.192;8.834;2023-04-15T15:45:02;10.10;99.90
44627;DHT22;30333;52.192;8.834;2023-04-15T15:49:54;10.30;99.90
44627;DHT22;30333;52.192;8.834;2023-04-15T15:52:19;10.60;99.90
44627;DHT22;30333;52.192;8.834;2023-04-15T15:54:45;10.50;99.90
44627;DHT22;30333;52.192;8.834;2023-04-15T15:57:10;10.30;99.90
44627;DHT22;30333;52.192;8.834;2023-04-15T16:02:09;10.40;99.90
44627;DHT22;30333;52.192;8.834;2023-04-15T16:04:36;10.40;99.90
44627;DHT22;30333;52.192;8.834;2023-04-15T16:07:02;10.40;99.90
44627;DHT22;30333;52.192;8.834;2023-04-15T16:09:28;10.40;99.90
44627;DHT22;30333;52.192;8.834;2023-04-15T16:11:54;10.40;99.90
44627;DHT22;30333;52.192;8.834;2023-04-15T16:14:20;10.60;99.90
44627;DHT22;30333;52.192;8.834;2023-04-15T16:16:45;10.70;99.90
44627;DHT22;30333;52.192;8.834;2023-04-15T16:19:11;11.60;99.90
44627;DHT22;30333;52.192;8.834;2023-04-15T16:21:36;10.50;99.90
44627;DHT22;30333;52.192;8.834;2023-04-15T16:24:02;11.40;99.90
44627;DHT22;30333;52.192;8.834;2023-04-15T16:26:27;11.50;99.90
44627;DHT22;30333;52.192;8.834;2023-04-15T16:28:53;11.00;99.90
44627;DHT22;30333;52.192;8.834;2023-04-15T16:31:18;10.40;99.90
44627;DHT22;30333;52.192;8.834;2023-04-15T16:36:10;10.40;99.90
44627;DHT22;30333;52.192;8.834;2023-04-15T16:38:35;11.40;99.90
44627;DHT22;30333;52.192;8.834;2023-04-15T16:41:01;10.20;99.90
44627;DHT22;30333;52.192;8.834;2023-04-15T16:45:53;10.00;99.90
44627;DHT22;30333;52.192;8.834;2023-04-15T16:48:19;10.40;99.90
44627;DHT22;30333;52.192;8.834;2023-04-15T16:50:46;9.80;99.90
44627;DHT22;30333;52.192;8.834;2023-04-15T16:53:13;9.80;99.90
44627;DHT22;30333;52.192;8.834;2023-04-15T16:55:39;9.80;99.90
44627;DHT22;30333;52.192;8.834;2023-04-15T17:00:31;9.80;99.90
44627;DHT22;30333;52.192;8.834;2023-04-15T17:02:57;9.90;99.90
44627;DHT22;30333;52.192;8.834;2023-04-15T17:05:23;10.00;99.90
44627;DHT22;30333;52.192;8.834;2023-04-15T17:07:49;9.80;99.90
44627;DHT22;30333;52.192;8.834;2023-04-15T17:12:40;10.70;99.90
44627;DHT22;30333;52.192;8.834;2023-04-15T17:15:06;10.20;99.90
44627;DHT22;30333;52.192;8.834;2023-04-15T17:17:32;10.00;99.90
44627;DHT22;30333;52.192;8.834;2023-04-15T17:19:57;9.90;99.90
44627;DHT22;30333;52.192;8.834;2023-04-15T17:29:41;9.60;99.90
44627;DHT22;30333;52.192;8.834;2023-04-15T17:34:32;9.70;99.90
44627;DHT22;30333;52.192;8.834;2023-04-15T17:36:58;9.70;99.90
44627;DHT22;30333;52.192;8.834;2023-04-15T17:39:23;9.60;99.90
44627;DHT22;30333;52.192;8.834;2023-04-15T17:41:49;9.70;99.90
44627;DHT22;30333;52.192;8.834;2023-04-15T17:44:14;10.10;99.90
44627;DHT22;30333;52.192;8.834;2023-04-15T17:46:40;10.00;99.90
44627;DHT22;30333;52.192;8.834;2023-04-15T17:49:05;9.80;99.90
44627;DHT22;30333;52.192;8.834;2023-04-15T17:51:31;9.60;99.90
44627;DHT22;30333;52.192;8.834;2023-04-15T17:53:57;9.40;99.90
44627;DHT22;30333;52.192;8.834;2023-04-15T17:56:22;9.40;99.90
44627;DHT22;30333;52.192;8.834;2023-04-15T17:58:48;9.40;99.90
44627;DHT22;30333;52.192;8.834;2023-04-15T18:01:13;9.50;99.90
44627;DHT22;30333;52.192;8.834;2023-04-15T18:03:39;9.40;99.90
44627;DHT22;30333;52.192;8.834;2023-04-15T18:08:30;9.50;99.90
44627;DHT22;30333;52.192;8.834;2023-04-15T18:10:56;9.50;99.90
44627;DHT22;30333;52.192;8.834;2023-04-15T18:13:21;9.50;99.90
44627;DHT22;30333;52.192;8.834;2023-04-15T18:15:47;9.60;99.90
44627;DHT22;30333;52.192;8.834;2023-04-15T18:18:13;9.50;99.90
44627;DHT22;30333;52.192;8.834;2023-04-15T18:23:05;9.50;99.90
44627;DHT22;30333;52.192;8.834;2023-04-15T18:25:30;9.20;99.90
44627;DHT22;30333;52.192;8.834;2023-04-15T18:30:22;9.50;99.90
44627;DHT22;30333;52.192;8.834;2023-04-15T18:32:48;9.50;99.90
44627;DHT22;30333;52.192;8.834;2023-04-15T18:35:13;9.60;99.90
44627;DHT22;30333;52.192;8.834;2023-04-15T18:40:07;9.50;99.90
44627;DHT22;30333;52.192;8.834;2023-04-15T18:42:33;9.60;99.90
44627;DHT22;30333;52.192;8.834;2023-04-15T18:44:59;9.50;99.90
44627;DHT22;30333;52.192;8.834;2023-04-15T18:47:25;9.70;99.90
44627;DHT22;30333;52.192;8.834;2023-04-15T18:49:51;9.60;99.90
44627;DHT22;30333;52.192;8.834;2023-04-15T18:52:17;9.60;99.90
44627;DHT22;30333;52.192;8.834;2023-04-15T18:54:42;9.50;99.90
44627;DHT22;30333;52.192;8.834;2023-04-15T18:57:08;9.50;99.90
44627;DHT22;30333;52.192;8.834;2023-04-15T19:01:59;9.70;99.90
44627;DHT22;30333;52.192;8.834;2023-04-15T19:04:26;10.10;99.90
44627;DHT22;30333;52.192;8.834;2023-04-15T19:06:52;9.60;99.90
44627;DHT22;30333;52.192;8.834;2023-04-15T19:09:18;9.50;99.90
44627;DHT22;30333;52.192;8.834;2023-04-15T19:11:44;9.60;99.90
44627;DHT22;30333;52.192;8.834;2023-04-15T19:14:10;9.60;99.90
44627;DHT22;30333;52.192;8.834;2023-04-15T19:16:35;9.70;99.90
44627;DHT22;30333;52.192;8.834;2023-04-15T19:19:01;10.70;99.90
44627;DHT22;30333;52.192;8.834;2023-04-15T19:23:55;9.50;99.90
44627;DHT22;30333;52.192;8.834;2023-04-15T19:26:21;9.70;99.90
44627;DHT22;30333;52.192;8.834;2023-04-15T19:28:46;9.70;99.90
44627;DHT22;30333;52.192;8.834;2023-04-15T19:31:12;9.70;99.90
44627;DHT22;30333;52.192;8.834;2023-04-15T19:33:38;9.50;99.90
44627;DHT22;30333;52.192;8.834;2023-04-15T19:36:05;9.60;99.90
44627;DHT22;30333;52.192;8.834;2023-04-15T19:38:31;9.60;99.90
44627;DHT22;30333;52.192;8.834;2023-04-15T19:40:57;9.70;99.90
44627;DHT22;30333;52.192;8.834;2023-04-15T19:43:23;9.80;99.90
44627;DHT22;30333;52.192;8.834;2023-04-15T19:45:50;9.50;99.90
44627;DHT22;30333;52.192;8.834;2023-04-15T19:48:17;9.50;99.90
44627;DHT22;30333;52.192;8.834;2023-04-15T19:55:35;9.70;99.90
44627;DHT22;30333;52.192;8.834;2023-04-15T19:58:01;9.60;99.90
44627;DHT22;30333;52.192;8.834;2023-04-15T20:00:26;9.70;99.90
44627;DHT22;30333;52.192;8.834;2023-04-15T20:02:52;9.60;99.90
44627;DHT22;30333;52.192;8.834;2023-04-15T20:10:13;9.80;99.90
44627;DHT22;30333;52.192;8.834;2023-04-15T20:12:39;9.70;99.90
44627;DHT22;30333;52.192;8.834;2023-04-15T20:15:06;10.10;99.90
44627;DHT22;30333;52.192;8.834;2023-04-15T20:17:33;9.70;99.90
44627;DHT22;30333;52.192;8.834;2023-04-15T20:19:58;9.90;99.90
44627;DHT22;30333;52.192;8.834;2023-04-15T20:22:24;10.00;99.90
44627;DHT22;30333;52.192;8.834;2023-04-15T20:24:49;10.10;99.90
44627;DHT22;30333;52.192;8.834;2023-04-15T20:27:15;10.10;99.90
44627;DHT22;30333;52.192;8.834;2023-04-15T20:34:36;10.30;99.90
44627;DHT22;30333;52.192;8.834;2023-04-15T20:37:01;10.10;99.90
44627;DHT22;30333;52.192;8.834;2023-04-15T20:39:27;9.90;99.90
44627;DHT22;30333;52.192;8.834;2023-04-15T20:41:54;9.80;99.90
44627;DHT22;30333;52.192;8.834;2023-04-15T20:44:20;9.70;99.90
44627;DHT22;30333;52.192;8.834;2023-04-15T20:46:45;9.70;99.90
44627;DHT22;30333;52.192;8.834;2023-04-15T20:49:11;9.60;99.90
44627;DHT22;30333;52.192;8.834;2023-04-15T20:51:36;9.70;99.90
44627;DHT22;30333;52.192;8.834;2023-04-15T20:54:05;9.90;99.90
44627;DHT22;30333;52.192;8.834;2023-04-15T20:56:31;10.00;99.90
44627;DHT22;30333;52.192;8.834;2023-04-15T20:58:56;10.10;99.90
44627;DHT22;30333;52.192;8.834;2023-04-15T21:01:22;9.90;99.90
44627;DHT22;30333;52.192;8.834;2023-04-15T21:03:47;9.90;99.90
44627;DHT22;30333;52.192;8.834;2023-04-15T21:06:13;10.20;99.90
44627;DHT22;30333;52.192;8.834;2023-04-15T21:08:38;10.20;99.90
44627;DHT22;30333;52.192;8.834;2023-04-15T21:11:04;10.10;99.90
44627;DHT22;30333;52.192;8.834;2023-04-15T21:13:29;10.20;99.90
44627;DHT22;30333;52.192;8.834;2023-04-15T21:15:55;10.30;99.90
44627;DHT22;30333;52.192;8.834;2023-04-15T21:18:21;10.40;99.90
44627;DHT22;30333;52.192;8.834;2023-04-15T21:20:58;10.40;99.90
44627;DHT22;30333;52.192;8.834;2023-04-15T21:23:24;10.40;99.90
44627;DHT22;30333;52.192;8.834;2023-04-15T21:28:16;10.70;99.90
44627;DHT22;30333;52.192;8.834;2023-04-15T21:30:41;10.60;99.90
44627;DHT22;30333;52.192;8.834;2023-04-15T21:35:33;10.40;99.90
44627;DHT22;30333;52.192;8.834;2023-04-15T21:37:58;10.40;99.90
44627;DHT22;30333;52.192;8.834;2023-04-15T21:40:24;10.40;99.90
44627;DHT22;30333;52.192;8.834;2023-04-15T21:42:49;10.30;99.90
44627;DHT22;30333;52.192;8.834;2023-04-15T21:47:41;10.00;99.90
44627;DHT22;30333;52.192;8.834;2023-04-15T21:50:07;10.00;99.90
44627;DHT22;30333;52.192;8.834;2023-04-15T21:52:33;10.10;99.90
44627;DHT22;30333;52.192;8.834;2023-04-15T21:54:58;10.30;99.90
44627;DHT22;30333;52.192;8.834;2023-04-15T21:57:24;10.20;99.90
44627;DHT22;30333;52.192;8.834;2023-04-15T21:59:49;10.30;99.90
44627;DHT22;30333;52.192;8.834;2023-04-15T22:02:15;10.10;99.90
44627;DHT22;30333;52.192;8.834;2023-04-15T22:04:40;10.20;99.90
44627;DHT22;30333;52.192;8.834;2023-04-15T22:07:06;10.30;99.90
44627;DHT22;30333;52.192;8.834;2023-04-15T22:09:31;10.30;99.90
44627;DHT22;30333;52.192;8.834;2023-04-15T22:11:57;10.20;99.90
44627;DHT22;30333;52.192;8.834;2023-04-15T22:14:28;10.40;99.90
44627;DHT22;30333;52.192;8.834;2023-04-15T22:16:54;10.30;99.90
44627;DHT22;30333;52.192;8.834;2023-04-15T22:19:20;10.30;99.90
44627;DHT22;30333;52.192;8.834;2023-04-15T22:21:45;10.30;99.90
44627;DHT22;30333;52.192;8.834;2023-04-15T22:24:11;10.40;99.90
44627;DHT22;30333;52.192;8.834;2023-04-15T22:26:37;10.50;99.90
44627;DHT22;30333;52.192;8.834;2023-04-15T22:29:03;10.40;99.90
44627;DHT22;30333;52.192;8.834;2023-04-15T22:31:28;10.50;99.90
44627;DHT22;30333;52.192;8.834;2023-04-15T22:33:54;10.40;99.90
44627;DHT22;30333;52.192;8.834;2023-04-15T22:36:19;10.30;99.90
44627;DHT22;30333;52.192;8.834;2023-04-15T22:38:45;11.40;99.90
44627;DHT22;30333;52.192;8.834;2023-04-15T22:41:10;10.30;99.90
44627;DHT22;30333;52.192;8.834;2023-04-15T22:43:36;10.30;99.90
44627;DHT22;30333;52.192;8.834;2023-04-15T22:46:01;10.30;99.90
44627;DHT22;30333;52.192;8.834;2023-04-15T22:48:27;10.10;99.90
44627;DHT22;30333;52.192;8.834;2023-04-15T22:50:52;10.10;99.90
44627;DHT22;30333;52.192;8.834;2023-04-15T22:53:18;10.20;99.90
44627;DHT22;30333;52.192;8.834;2023-04-15T22:55:45;10.30;99.90
44627;DHT22;30333;52.192;8.834;2023-04-15T22:58:11;12.10;99.90
44627;DHT22;30333;52.192;8.834;2023-04-15T23:00:36;10.30;99.90
44627;DHT22;30333;52.192;8.834;2023-04-15T23:03:02;10.40;99.90
44627;DHT22;30333;52.192;8.834;2023-04-15T23:05:28;10.30;99.90
44627;DHT22;30333;52.192;8.834;2023-04-15T23:07:54;10.30;99.90
44627;DHT22;30333;52.192;8.834;2023-04-15T23:10:20;12.90;99.90
44627;DHT22;30333;52.192;8.834;2023-04-15T23:12:45;10.60;99.90
44627;DHT22;30333;52.192;8.834;2023-04-15T23:17:37;10.40;99.90
44627;DHT22;30333;52.192;8.834;2023-04-15T23:20:03;10.50;99.90
44627;DHT22;30333;52.192;8.834;2023-04-15T23:34:38;10.40;99.90
44627;DHT22;30333;52.192;8.834;2023-04-15T23:37:04;10.40;99.90
44627;DHT22;30333;52.192;8.834;2023-04-15T23:39:30;10.30;99.90
44627;DHT22;30333;52.192;8.834;2023-04-15T23:41:55;10.20;99.90
44627;DHT22;30333;52.192;8.834;2023-04-15T23:44:22;10.20;99.90
44627;DHT22;30333;52.192;8.834;2023-04-15T23:46:47;10.10;99.90
44627;DHT22;30333;52.192;8.834;2023-04-15T23:49:13;9.90;99.90
44627;DHT22;30333;52.192;8.834;2023-04-15T23:51:38;9.80;99.90
44627;DHT22;30333;52.192;8.834;2023-04-15T23:54:06;9.60;99.90
